Time;durP1;ratioP1;P1;durP2;ratioP2;P2;SDS_P1;SDS_P2;PMS_P1;PMS_P2;Temp;Humidity;BMP_temperature;BMP_pressure;BME280_temperature;BME280_humidity;BME280_pressure;Samples;Min_cycle;Max_cycle;Signal;HPM_P1;HPM_P2
2022/05/30 03:02:43;;;;;;;4.43;1.90;;;7.10;99.90;;;;;;6336131;22;20058;-75
2022/05/30 03:05:09;;;;;;;4.60;1.95;;;7.10;99.90;;;;;;6311484;22;20015;-75
2022/05/30 03:07:36;;;;;;;5.32;1.90;;;7.10;99.90;;;;;;6339143;22;20010;-76
2022/05/30 03:10:02;;;;;;;9.10;2.55;;;7.10;99.90;;;;;;6339267;22;20042;-75
2022/05/30 03:12:28;;;;;;;6.63;1.80;;;7.20;99.90;;;;;;6339125;22;20022;-75
2022/05/30 03:14:53;;;;;;;4.63;1.92;;;7.20;99.90;;;;;;6311316;22;20011;-75
2022/05/30 03:17:19;;;;;;;3.15;1.70;;;7.10;99.90;;;;;;6339182;22;20324;-77
2022/05/30 03:19:45;;;;;;;4.95;2.03;;;7.10;99.90;;;;;;6311007;22;20018;-75
2022/05/30 03:22:11;;;;;;;7.80;2.72;;;7.20;99.90;;;;;;6338995;22;20078;-76
2022/05/30 03:24:37;;;;;;;6.85;3.25;;;7.10;99.90;;;;;;6310990;22;20022;-76
2022/05/30 03:27:03;;;;;;;9.82;3.67;;;7.10;99.90;;;;;;6339047;22;20059;-77
2022/05/30 03:29:28;;;;;;;7.65;2.22;;;7.10;99.90;;;;;;6339113;22;20306;-76
2022/05/30 03:31:54;;;;;;;8.50;2.50;;;7.10;99.90;;;;;;6310845;22;20436;-77
2022/05/30 03:34:20;;;;;;;4.25;2.20;;;7.00;99.90;;;;;;6338619;22;20019;-76
2022/05/30 03:36:46;;;;;;;8.60;2.55;;;7.00;99.90;;;;;;6310811;22;20015;-77
2022/05/30 03:39:13;;;;;;;6.82;2.33;;;7.00;99.90;;;;;;6311517;22;20010;-77
2022/05/30 03:41:39;;;;;;;6.28;2.88;;;7.00;99.90;;;;;;6338978;22;20014;-75
2022/05/30 03:44:04;;;;;;;8.88;2.47;;;7.00;99.90;;;;;;6311341;22;20015;-76
2022/05/30 03:46:31;;;;;;;5.53;2.78;;;7.00;99.90;;;;;;6311227;22;20360;-76
2022/05/30 03:48:57;;;;;;;7.28;2.88;;;7.00;99.90;;;;;;6339787;22;20068;-75
2022/05/30 03:51:23;;;;;;;12.73;3.13;;;7.10;99.90;;;;;;6341039;22;20007;-76
2022/05/30 03:53:51;;;;;;;8.25;2.80;;;7.10;99.90;;;;;;6313182;22;20036;-75
2022/05/30 03:56:19;;;;;;;6.57;2.38;;;7.10;99.90;;;;;;6313158;22;20085;-75
2022/05/30 03:58:44;;;;;;;8.15;3.38;;;7.10;99.90;;;;;;6341070;22;20011;-75
2022/05/30 04:01:10;;;;;;;6.82;2.40;;;7.20;99.90;;;;;;6340625;22;20007;-76
2022/05/30 04:03:37;;;;;;;6.57;2.85;;;7.20;99.90;;;;;;6340691;22;20006;-76
2022/05/30 04:06:03;;;;;;;10.20;3.83;;;7.20;99.90;;;;;;6313014;22;20007;-76
2022/05/30 04:08:29;;;;;;;10.27;3.63;;;7.20;99.90;;;;;;6340972;22;20018;-76
2022/05/30 04:10:55;;;;;;;8.50;3.42;;;7.30;99.90;;;;;;6340849;22;20333;-75
2022/05/30 04:13:21;;;;;;;5.25;3.10;;;7.30;99.90;;;;;;6312912;22;20020;-76
2022/05/30 04:15:46;;;;;;;12.88;3.67;;;7.30;99.90;;;;;;6340810;22;20006;-76
2022/05/30 04:18:12;;;;;;;7.57;2.97;;;7.30;99.90;;;;;;6340399;22;20356;-76
2022/05/30 04:20:40;;;;;;;8.85;3.83;;;7.30;99.90;;;;;;6312698;22;20035;-76
2022/05/30 04:23:05;;;;;;;8.45;3.47;;;7.40;99.90;;;;;;6312720;22;20371;-76
2022/05/30 04:25:31;;;;;;;8.10;3.08;;;7.40;99.90;;;;;;6312841;22;20014;-76
2022/05/30 04:27:57;;;;;;;8.88;3.65;;;7.40;99.90;;;;;;6340756;22;20310;-75
2022/05/30 04:30:24;;;;;;;7.85;3.33;;;7.40;99.90;;;;;;6312635;22;20082;-77
2022/05/30 04:32:50;;;;;;;9.65;2.90;;;7.40;99.90;;;;;;6312866;22;20013;-75
2022/05/30 04:35:17;;;;;;;11.27;3.47;;;7.40;99.90;;;;;;6344013;22;20007;-75
2022/05/30 04:37:43;;;;;;;9.30;3.08;;;7.40;99.90;;;;;;6317763;22;20406;-76
2022/05/30 04:40:13;;;;;;;9.32;2.95;;;7.50;99.90;;;;;;6341078;22;20011;-75
2022/05/30 04:42:39;;;;;;;7.65;2.60;;;7.50;99.90;;;;;;6340417;22;20010;-75
2022/05/30 04:45:06;;;;;;;6.05;2.90;;;7.50;99.90;;;;;;6312940;22;20010;-76
2022/05/30 04:47:36;;;;;;;7.65;3.25;;;7.60;99.90;;;;;;6340733;22;20007;-76
2022/05/30 04:50:08;;;;;;;6.97;3.15;;;7.60;99.90;;;;;;6312655;22;20011;-76
2022/05/30 04:52:33;;;;;;;7.40;3.08;;;7.60;99.90;;;;;;6312423;22;20080;-75
2022/05/30 04:54:59;;;;;;;10.82;3.22;;;7.60;99.90;;;;;;6340912;22;20007;-76
2022/05/30 04:57:25;;;;;;;10.02;3.17;;;7.60;99.90;;;;;;6340124;22;20015;-76
2022/05/30 04:59:51;;;;;;;8.15;2.90;;;7.60;99.90;;;;;;6312460;22;20023;-76
2022/05/30 05:02:17;;;;;;;7.93;2.83;;;7.70;99.90;;;;;;6339235;22;20019;-75
2022/05/30 05:04:43;;;;;;;6.13;2.60;;;7.80;99.90;;;;;;6340404;22;20044;-75
2022/05/30 05:07:09;;;;;;;6.55;2.88;;;7.70;99.90;;;;;;6340294;22;20013;-76
2022/05/30 05:09:50;;;;;;;8.90;2.85;;;7.80;99.90;;;;;;6340113;22;20011;-76
2022/05/30 05:12:16;;;;;;;7.50;2.67;;;7.80;99.90;;;;;;6340099;22;20024;-76
2022/05/30 05:14:41;;;;;;;4.60;2.58;;;7.80;99.90;;;;;;6312407;22;20011;-77
2022/05/30 05:17:08;;;;;;;4.35;2.67;;;7.80;99.90;;;;;;6312524;22;20018;-76
2022/05/30 05:19:34;;;;;;;7.30;3.03;;;7.90;99.90;;;;;;6340335;22;20015;-79
2022/05/30 05:22:00;;;;;;;10.32;3.58;;;7.90;99.90;;;;;;6312317;22;20025;-75
2022/05/30 05:24:26;;;;;;;7.03;2.40;;;8.00;99.90;;;;;;6340182;22;20090;-76
2022/05/30 05:26:51;;;;;;;5.72;2.67;;;8.10;99.90;;;;;;6312399;22;20038;-75
2022/05/30 05:29:17;;;;;;;7.05;2.47;;;8.10;99.90;;;;;;6340183;22;20018;-76
2022/05/30 05:31:44;;;;;;;7.20;2.72;;;8.10;99.90;;;;;;6312066;22;20010;-76
2022/05/30 05:34:11;;;;;;;6.30;2.85;;;8.20;99.90;;;;;;6312211;22;20046;-76
2022/05/30 05:36:41;;;;;;;7.78;2.70;;;8.30;99.90;;;;;;6339565;22;20021;-75
2022/05/30 05:39:08;;;;;;;7.93;2.38;;;8.30;99.90;;;;;;6312180;22;20424;-75
2022/05/30 05:41:34;;;;;;;5.90;2.90;;;8.40;99.90;;;;;;6340080;22;20329;-76
2022/05/30 05:44:00;;;;;;;7.50;2.25;;;8.40;99.90;;;;;;6311950;22;20015;-76
2022/05/30 05:46:30;;;;;;;5.68;2.15;;;8.50;99.90;;;;;;6312146;22;20021;-76
2022/05/30 05:48:56;;;;;;;7.93;1.95;;;8.60;99.90;;;;;;6339824;22;20086;-76
2022/05/30 05:51:23;;;;;;;4.85;2.17;;;8.60;99.90;;;;;;6311935;22;20087;-77
2022/05/30 05:53:49;;;;;;;5.82;2.20;;;8.60;99.90;;;;;;6339861;22;20034;-75
2022/05/30 05:56:24;;;;;;;4.80;1.90;;;8.70;99.90;;;;;;6339833;22;20010;-77
2022/05/30 05:58:50;;;;;;;4.57;2.03;;;8.80;99.90;;;;;;6286066;22;20017;-75
2022/05/30 06:01:23;;;;;;;4.53;1.92;;;8.90;99.90;;;;;;6311549;22;20343;-77
2022/05/30 06:03:52;;;;;;;10.02;2.13;;;9.00;99.90;;;;;;6312462;22;20015;-76
2022/05/30 06:06:18;;;;;;;5.20;2.10;;;9.00;99.90;;;;;;6311739;22;20046;-76
2022/05/30 06:08:43;;;;;;;5.10;2.13;;;9.10;99.90;;;;;;6311725;22;20017;-75
2022/05/30 06:11:09;;;;;;;5.57;1.98;;;9.10;99.90;;;;;;6311666;22;20091;-75
2022/05/30 06:13:36;;;;;;;5.43;1.80;;;9.20;99.90;;;;;;6311207;22;20068;-75
2022/05/30 06:16:07;;;;;;;3.30;2.08;;;9.20;99.90;;;;;;6311665;22;20019;-77
2022/05/30 06:18:34;;;;;;;3.85;1.73;;;9.30;99.90;;;;;;6311708;22;20028;-76
2022/05/30 06:21:01;;;;;;;6.63;1.60;;;9.30;99.90;;;;;;6339533;22;20060;-76
2022/05/30 06:23:26;;;;;;;7.80;1.67;;;9.40;99.90;;;;;;6339697;22;20011;-76
2022/05/30 06:25:52;;;;;;;5.32;1.60;;;9.40;99.90;;;;;;6285828;22;20524;-75
2022/05/30 06:28:18;;;;;;;3.50;1.10;;;9.50;99.90;;;;;;6311591;22;20014;-76
2022/05/30 06:30:44;;;;;;;2.60;1.30;;;9.60;99.90;;;;;;6311474;22;20003;-76
2022/05/30 06:33:10;;;;;;;3.20;1.20;;;9.70;99.90;;;;;;6339659;22;20132;-76
2022/05/30 06:35:40;;;;;;;3.55;1.40;;;9.80;99.90;;;;;;6311499;22;20007;-76
2022/05/30 06:38:08;;;;;;;4.97;1.70;;;9.90;99.90;;;;;;6339580;22;20073;-76
2022/05/30 06:40:33;;;;;;;3.55;1.55;;;10.00;99.90;;;;;;6285639;22;20017;-75
2022/05/30 06:42:59;;;;;;;5.05;1.27;;;10.00;99.90;;;;;;6311453;22;20038;-76
2022/05/30 06:45:25;;;;;;;4.50;1.30;;;10.00;99.90;;;;;;6339359;22;20011;-75
2022/05/30 06:47:51;;;;;;;4.40;1.50;;;10.10;99.90;;;;;;6339873;22;20082;-77
2022/05/30 06:50:17;;;;;;;5.80;1.67;;;10.10;99.90;;;;;;6339413;22;20038;-76
2022/05/30 06:52:43;;;;;;;5.00;1.60;;;10.10;99.90;;;;;;6339419;22;20007;-76
2022/05/30 06:55:09;;;;;;;3.80;1.30;;;10.20;99.90;;;;;;6339113;22;20007;-76
2022/05/30 07:00:20;;;;;;;5.53;1.40;;;10.30;99.90;;;;;;6338730;22;20015;-76
2022/05/30 07:02:46;;;;;;;3.33;1.20;;;10.40;99.90;;;;;;6339320;22;20011;-76
2022/05/30 07:05:13;;;;;;;3.58;1.40;;;10.30;99.90;;;;;;6339445;22;20006;-78
2022/05/30 07:07:41;;;;;;;3.25;1.25;;;10.30;99.90;;;;;;6312089;22;20013;-78
2022/05/30 07:10:08;;;;;;;1.83;1.00;;;10.40;99.90;;;;;;6285458;22;20019;-76
2022/05/30 07:12:34;;;;;;;3.03;1.30;;;10.50;99.90;;;;;;6339132;22;20007;-77
2022/05/30 07:15:00;;;;;;;3.28;1.30;;;10.60;99.90;;;;;;6311234;22;20061;-77
2022/05/30 07:17:26;;;;;;;5.00;1.20;;;10.60;99.90;;;;;;6339424;22;20055;-76
2022/05/30 07:19:52;;;;;;;2.00;0.93;;;10.70;99.90;;;;;;6338899;22;20022;-76
2022/05/30 07:22:18;;;;;;;3.78;1.27;;;10.70;99.90;;;;;;6339034;22;20014;-77
2022/05/30 07:24:44;;;;;;;3.63;0.90;;;10.70;99.90;;;;;;6311782;22;20022;-75
2022/05/30 07:27:10;;;;;;;7.07;1.27;;;10.70;99.90;;;;;;6312992;22;20034;-75
2022/05/30 07:29:36;;;;;;;3.75;1.10;;;10.70;99.90;;;;;;6341119;22;20011;-75
2022/05/30 07:32:03;;;;;;;2.88;1.02;;;10.60;99.90;;;;;;6313710;22;20128;-75
2022/05/30 07:34:30;;;;;;;3.40;0.90;;;10.70;99.90;;;;;;6316154;22;20086;-75
2022/05/30 07:36:58;;;;;;;2.63;1.00;;;10.70;99.90;;;;;;6340810;22;20102;-74
2022/05/30 07:39:23;;;;;;;4.13;0.80;;;10.80;99.90;;;;;;6340824;22;20329;-76
2022/05/30 07:41:49;;;;;;;5.00;0.90;;;10.80;99.90;;;;;;6311004;22;20021;-75
2022/05/30 07:44:15;;;;;;;1.83;0.80;;;11.00;99.90;;;;;;6339043;22;20007;-77
2022/05/30 07:46:43;;;;;;;3.10;0.63;;;11.20;99.90;;;;;;6285182;22;20014;-78
2022/05/30 07:49:10;;;;;;;2.03;0.60;;;11.30;99.90;;;;;;6338726;22;20412;-77
2022/05/30 07:51:36;;;;;;;2.17;0.50;;;11.30;99.90;;;;;;6310891;22;20058;-78
2022/05/30 07:54:01;;;;;;;1.63;0.40;;;11.40;99.90;;;;;;6311008;22;20042;-76
2022/05/30 07:56:27;;;;;;;2.25;0.80;;;11.30;99.90;;;;;;6311035;22;20023;-77
2022/05/30 07:58:53;;;;;;;2.75;0.82;;;11.30;99.90;;;;;;6310987;22;20527;-77
2022/05/30 08:01:20;;;;;;;3.45;0.60;;;11.20;99.90;;;;;;6310802;22;20490;-77
2022/05/30 08:03:47;;;;;;;3.67;0.50;;;11.20;99.90;;;;;;6310811;22;20010;-76
2022/05/30 08:06:16;;;;;;;2.22;0.60;;;11.20;99.90;;;;;;6310820;22;20077;-76
2022/05/30 08:08:43;;;;;;;2.22;0.70;;;11.20;99.90;;;;;;6310878;22;20436;-77
2022/05/30 08:11:09;;;;;;;1.60;0.60;;;11.20;99.90;;;;;;6310699;22;20011;-77
2022/05/30 08:13:35;;;;;;;3.40;0.88;;;11.20;99.90;;;;;;6310700;22;20011;-78
2022/05/30 08:16:02;;;;;;;3.03;0.70;;;11.20;99.90;;;;;;6310736;22;20066;-76
2022/05/30 08:18:29;;;;;;;0.90;0.40;;;11.30;99.90;;;;;;6338743;22;20018;-76
2022/05/30 08:20:55;;;;;;;2.08;0.60;;;11.20;99.90;;;;;;6310743;22;20014;-77
2022/05/30 08:23:20;;;;;;;1.13;0.45;;;11.30;99.90;;;;;;6338826;22;20017;-77
2022/05/30 08:25:47;;;;;;;0.63;0.40;;;11.30;99.90;;;;;;6310743;22;20015;-76
2022/05/30 08:28:13;;;;;;;1.60;0.52;;;11.30;99.90;;;;;;6338768;22;20318;-76
2022/05/30 08:30:39;;;;;;;3.15;0.73;;;11.30;99.90;;;;;;6338603;22;20011;-77
2022/05/30 08:33:13;;;;;;;2.83;0.90;;;11.40;99.90;;;;;;6338724;22;20052;-76
2022/05/30 08:35:38;;;;;;;1.48;0.60;;;11.50;99.90;;;;;;6310762;22;20333;-76
2022/05/30 08:38:05;;;;;;;1.60;0.70;;;11.50;99.90;;;;;;6340652;22;20011;-77
2022/05/30 08:43:28;;;;;;;1.67;0.70;;;11.70;99.90;;;;;;6312536;22;20014;-77
2022/05/30 08:46:08;;;;;;;4.10;0.82;;;11.80;99.90;;;;;;6340655;22;20006;-77
2022/05/30 08:48:42;;;;;;;3.20;0.80;;;11.80;99.90;;;;;;6312616;22;20328;-78
2022/05/30 08:51:35;;;;;;;3.05;0.75;;;11.90;99.90;;;;;;6312463;22;20478;-77
2022/05/30 08:54:22;;;;;;;2.88;1.10;;;11.90;99.90;;;;;;6312445;22;20053;-76
2022/05/30 08:56:50;;;;;;;2.22;0.60;;;11.90;99.90;;;;;;6312536;22;20023;-76
2022/05/30 08:59:24;;;;;;;3.40;0.85;;;11.90;99.90;;;;;;6312358;22;20019;-76
2022/05/30 09:02:00;;;;;;;4.30;1.17;;;11.80;99.90;;;;;;6312121;22;20019;-76
2022/05/30 09:04:30;;;;;;;5.22;0.88;;;11.80;99.90;;;;;;6340334;22;20010;-76
2022/05/30 09:06:57;;;;;;;3.40;0.80;;;11.70;99.90;;;;;;6312264;22;20011;-75
2022/05/30 09:09:27;;;;;;;3.88;0.60;;;11.60;99.90;;;;;;6288947;22;20021;-77
2022/05/30 09:12:02;;;;;;;2.03;0.75;;;11.40;99.90;;;;;;6313455;22;20063;-77
2022/05/30 09:14:37;;;;;;;2.25;0.95;;;11.40;99.90;;;;;;6312598;22;20015;-76
2022/05/30 09:17:05;;;;;;;2.75;0.60;;;11.40;99.90;;;;;;6313409;22;20371;-77
2022/05/30 09:19:31;;;;;;;1.00;0.38;;;11.40;99.90;;;;;;6286504;22;20387;-76
2022/05/30 09:22:03;;;;;;;2.08;0.50;;;11.40;99.90;;;;;;6340022;22;20115;-78
2022/05/30 09:24:32;;;;;;;6.65;1.45;;;11.50;99.90;;;;;;6312559;22;20065;-77
2022/05/30 09:27:00;;;;;;;1.90;0.60;;;11.60;99.90;;;;;;6312044;22;20064;-76
2022/05/30 09:29:36;;;;;;;1.40;0.43;;;11.70;99.90;;;;;;6312099;22;20082;-76
2022/05/30 09:32:28;;;;;;;3.38;0.73;;;11.70;99.90;;;;;;6312205;22;20036;-77
2022/05/30 09:34:54;;;;;;;2.13;0.60;;;11.80;99.90;;;;;;6312168;22;20015;-75
2022/05/30 09:37:25;;;;;;;0.90;0.40;;;11.90;99.90;;;;;;6339642;22;20455;-76
2022/05/30 09:39:51;;;;;;;2.75;0.80;;;12.20;99.90;;;;;;6340048;22;20098;-76
2022/05/30 09:42:37;;;;;;;2.10;0.50;;;12.40;99.90;;;;;;6311901;22;20054;-77
2022/05/30 09:45:14;;;;;;;2.37;0.70;;;12.30;99.90;;;;;;6340040;22;20101;-78
2022/05/30 09:48:15;;;;;;;2.55;0.57;;;12.40;99.90;;;;;;6311869;22;20049;-77
2022/05/30 09:50:57;;;;;;;5.20;0.70;;;12.60;99.90;;;;;;6312095;22;20018;-77
2022/05/30 09:53:43;;;;;;;1.40;0.50;;;12.90;99.90;;;;;;6339574;22;20011;-76
2022/05/30 09:56:11;;;;;;;3.43;0.57;;;13.10;99.90;;;;;;6313316;22;20047;-76
2022/05/30 09:59:03;;;;;;;3.28;0.75;;;13.40;99.90;;;;;;6311885;22;20237;-75
2022/05/30 10:01:32;;;;;;;2.83;0.80;;;13.70;99.90;;;;;;6312023;22;20108;-77
2022/05/30 10:04:33;;;;;;;1.98;0.60;;;13.90;99.90;;;;;;6339759;22;20046;-77
2022/05/30 10:07:07;;;;;;;2.00;0.63;;;14.20;99.90;;;;;;6311961;22;20085;-77
2022/05/30 10:09:34;;;;;;;2.15;0.60;;;14.20;99.90;;;;;;6312205;22;20141;-79
2022/05/30 10:12:00;;;;;;;1.17;0.43;;;14.20;99.90;;;;;;6285917;22;20432;-77
2022/05/30 10:14:34;;;;;;;2.20;0.40;;;14.30;99.90;;;;;;6311995;22;20018;-76
2022/05/30 10:17:19;;;;;;;1.10;0.50;;;14.40;99.90;;;;;;6339818;22;20018;-78
2022/05/30 10:19:48;;;;;;;1.52;0.43;;;14.50;99.90;;;;;;6339881;22;20329;-78
2022/05/30 10:28:50;;;;;;;2.17;0.55;;;14.60;99.90;;;;;;6311538;22;20051;-77
2022/05/30 10:31:34;;;;;;;1.45;0.70;;;14.40;99.90;;;;;;6311681;22;20046;-77
2022/05/30 10:34:27;;;;;;;0.70;0.40;;;14.80;99.90;;;;;;6311777;22;20079;-77
2022/05/30 10:37:11;;;;;;;4.72;0.85;;;14.70;99.90;;;;;;6311643;22;20011;-79
2022/05/30 10:39:37;;;;;;;2.65;0.88;;;14.10;99.90;;;;;;6311510;22;20011;-78
2022/05/30 10:42:11;;;;;;;1.17;0.60;;;13.80;99.90;;;;;;6339517;22;20011;-77
2022/05/30 10:44:44;;;;;;;3.75;0.70;;;13.50;99.90;;;;;;6311514;22;20060;-76
2022/05/30 10:47:32;;;;;;;2.55;0.70;;;13.10;99.90;;;;;;6311376;22;20014;-77
2022/05/30 10:50:07;;;;;;;2.53;1.00;;;12.90;99.90;;;;;;6311306;22;20330;-76
2022/05/30 10:53:05;;;;;;;4.55;1.30;;;12.80;99.90;;;;;;6311825;22;20082;-77
2022/05/30 10:55:36;;;;;;;3.13;0.75;;;12.80;99.90;;;;;;6310263;22;20011;-77
2022/05/30 10:58:21;;;;;;;4.63;0.80;;;12.70;99.90;;;;;;6311645;22;20014;-76
2022/05/30 11:00:54;;;;;;;3.60;0.70;;;12.70;99.90;;;;;;6311249;22;20459;-80
2022/05/30 11:03:30;;;;;;;2.72;0.60;;;12.60;99.90;;;;;;6311443;22;20011;-80
2022/05/30 11:06:05;;;;;;;4.10;0.80;;;12.40;99.90;;;;;;6339388;22;20321;-78
2022/05/30 11:08:38;;;;;;;;;;;12.40;99.90;;;;;;6339565;22;20085;-76
2022/05/30 11:11:25;;;;;;;3.22;0.60;;;12.40;99.90;;;;;;6339303;22;19917;-77
2022/05/30 11:13:55;;;;;;;2.80;0.63;;;12.40;99.90;;;;;;6338856;22;20433;-77
2022/05/30 11:16:24;;;;;;;3.75;0.80;;;12.40;99.90;;;;;;6285240;22;20014;-77
2022/05/30 11:19:23;;;;;;;2.45;0.85;;;12.40;99.90;;;;;;6311070;22;20108;-76
2022/05/30 11:22:14;;;;;;;2.65;0.60;;;12.50;99.90;;;;;;6339386;22;20017;-77
2022/05/30 11:24:40;;;;;;;5.22;0.82;;;12.40;99.90;;;;;;6339392;22;20103;-75
2022/05/30 11:27:29;;;;;;;3.58;0.70;;;12.50;99.90;;;;;;6339014;22;20063;-76
2022/05/30 11:29:58;;;;;;;2.20;0.50;;;12.50;99.90;;;;;;6311653;22;20049;-76
2022/05/30 11:32:49;;;;;;;3.75;0.60;;;12.50;99.90;;;;;;6311175;22;20011;-76
2022/05/30 11:35:32;;;;;;;2.83;0.77;;;12.50;99.90;;;;;;6338998;22;20076;-76
2022/05/30 11:38:01;;;;;;;2.00;0.57;;;12.50;99.90;;;;;;6339384;22;20018;-76
2022/05/30 11:40:56;;;;;;;2.67;0.80;;;12.60;99.90;;;;;;6311496;22;20385;-77
2022/05/30 11:43:42;;;;;;;1.80;0.47;;;12.70;99.90;;;;;;6339618;22;20370;-75
2022/05/30 11:46:29;;;;;;;1.80;0.55;;;12.70;99.90;;;;;;6310964;22;20065;-77
2022/05/30 11:48:57;;;;;;;1.08;0.43;;;12.50;99.90;;;;;;6338626;22;20015;-76
2022/05/30 11:51:46;;;;;;;1.15;0.40;;;12.50;99.90;;;;;;6338941;22;20014;-77
2022/05/30 11:54:43;;;;;;;2.38;0.52;;;12.40;99.90;;;;;;6311079;22;20104;-78
2022/05/30 11:57:35;;;;;;;2.83;0.60;;;12.30;99.90;;;;;;6311077;22;20421;-77
2022/05/30 12:00:01;;;;;;;1.77;0.60;;;12.10;99.90;;;;;;6338848;22;20067;-78
2022/05/30 12:03:05;;;;;;;1.98;0.60;;;11.90;99.90;;;;;;6310839;22;20011;-77
2022/05/30 12:06:10;;;;;;;3.22;0.90;;;11.80;99.90;;;;;;6303681;22;20105;-78
2022/05/30 12:09:04;;;;;;;4.45;0.82;;;11.60;99.90;;;;;;6310819;22;20015;-77
2022/05/30 12:11:41;;;;;;;2.42;0.82;;;11.40;99.90;;;;;;6279632;22;20011;-78
2022/05/30 12:14:17;;;;;;;3.25;0.80;;;11.30;99.90;;;;;;6340917;22;20009;-79
2022/05/30 12:17:03;;;;;;;3.47;0.98;;;11.10;99.90;;;;;;6287083;22;20094;-77
2022/05/30 12:24:57;;;;;;;3.05;1.30;;;11.30;99.90;;;;;;6312798;22;20019;-76
2022/05/30 12:27:26;;;;;;;4.22;1.20;;;11.20;99.90;;;;;;6340235;22;20336;-76
2022/05/30 12:29:53;;;;;;;3.95;1.20;;;11.20;99.90;;;;;;6340664;22;20345;-76
2022/05/30 12:32:21;;;;;;;2.65;1.20;;;11.20;99.90;;;;;;6340358;22;20017;-77
2022/05/30 12:38:06;;;;;;;2.97;1.10;;;11.30;99.90;;;;;;6340701;22;20024;-77
2022/05/30 12:40:36;;;;;;;3.22;1.10;;;11.30;99.90;;;;;;6312727;22;20030;-76
2022/05/30 12:43:23;;;;;;;4.70;1.02;;;11.30;99.90;;;;;;6312634;22;20010;-76
2022/05/30 12:45:55;;;;;;;4.53;1.08;;;11.40;99.90;;;;;;6312507;22;20019;-77
2022/05/30 12:48:27;;;;;;;3.63;1.45;;;11.30;99.90;;;;;;6312608;22;20011;-77
2022/05/30 12:50:53;;;;;;;6.43;1.48;;;11.30;99.90;;;;;;6340253;22;20003;-79
2022/05/30 12:53:21;;;;;;;5.78;1.55;;;11.30;99.90;;;;;;6286993;22;20507;-75
2022/05/30 12:55:52;;;;;;;5.43;1.65;;;11.30;99.90;;;;;;6312453;22;20018;-78
2022/05/30 12:58:31;;;;;;;3.53;1.42;;;11.20;99.90;;;;;;6312739;22;20014;-78
2022/05/30 13:01:25;;;;;;;4.80;1.63;;;11.20;99.90;;;;;;6312382;22;20010;-76
2022/05/30 13:04:16;;;;;;;4.32;1.20;;;11.30;99.90;;;;;;6312373;22;20010;-78
2022/05/30 13:07:08;;;;;;;3.03;1.10;;;11.30;99.90;;;;;;6340321;22;20011;-78
2022/05/30 13:09:42;;;;;;;4.57;1.38;;;11.30;99.90;;;;;;6312466;22;20412;-77
2022/05/30 13:12:14;;;;;;;2.92;1.05;;;11.40;99.90;;;;;;6312542;22;20019;-77
2022/05/30 13:14:49;;;;;;;3.80;1.25;;;11.40;99.90;;;;;;6312434;22;20433;-78
2022/05/30 13:17:24;;;;;;;4.90;1.40;;;11.50;99.90;;;;;;6286636;22;20015;-78
2022/05/30 13:19:56;;;;;;;4.63;1.40;;;11.60;99.90;;;;;;6312926;22;20081;-77
2022/05/30 13:22:30;;;;;;;5.32;1.50;;;11.60;99.90;;;;;;6312338;22;20021;-76
2022/05/30 13:24:56;;;;;;;3.42;1.60;;;11.60;99.90;;;;;;6342537;22;20014;-75
2022/05/30 13:27:21;;;;;;;5.40;1.25;;;11.70;99.90;;;;;;6342787;22;20060;-76
2022/05/30 13:29:47;;;;;;;5.20;1.55;;;11.80;99.90;;;;;;6314939;22;20019;-75
2022/05/30 13:32:15;;;;;;;9.50;1.38;;;11.90;99.90;;;;;;6342152;22;20007;-77
2022/05/30 13:34:48;;;;;;;3.75;1.20;;;12.10;99.90;;;;;;6314840;22;20147;-75
2022/05/30 13:37:27;;;;;;;3.53;1.13;;;12.20;99.90;;;;;;6340385;22;20071;-77
2022/05/30 13:39:56;;;;;;;8.20;1.10;;;12.30;99.90;;;;;;6339675;22;20432;-77
2022/05/30 13:42:25;;;;;;;3.40;1.10;;;12.40;99.90;;;;;;6286197;22;20381;-77
2022/05/30 13:45:01;;;;;;;4.43;1.08;;;12.50;99.90;;;;;;6311874;22;20089;-76
2022/05/30 13:47:28;;;;;;;4.20;1.20;;;12.70;99.90;;;;;;6339568;22;20010;-77
2022/05/30 13:49:56;;;;;;;3.25;1.00;;;12.90;99.90;;;;;;6286627;22;20014;-78
2022/05/30 13:52:25;;;;;;;5.35;1.33;;;13.00;99.90;;;;;;6311762;22;20017;-77
2022/05/30 13:54:56;;;;;;;3.78;0.95;;;13.00;99.90;;;;;;6311863;22;20038;-76
2022/05/30 13:57:23;;;;;;;2.45;0.80;;;13.10;99.90;;;;;;6339884;22;20006;-77
2022/05/30 13:59:53;;;;;;;2.58;0.75;;;13.20;99.90;;;;;;6339850;22;20010;-77
2022/05/30 14:02:33;;;;;;;4.43;1.00;;;13.20;99.90;;;;;;6339315;22;20010;-76
2022/05/30 14:05:07;;;;;;;2.13;0.93;;;13.30;99.90;;;;;;6311926;22;20015;-77
2022/05/30 14:07:42;;;;;;;2.85;1.05;;;13.40;99.90;;;;;;6312407;22;20014;-76
2022/05/30 14:10:10;;;;;;;4.00;1.08;;;13.50;99.90;;;;;;6311862;22;20052;-76
2022/05/30 14:12:45;;;;;;;6.70;1.02;;;13.50;99.90;;;;;;6311657;22;20030;-76
2022/05/30 14:15:21;;;;;;;2.30;1.02;;;13.60;99.90;;;;;;6286150;22;20011;-76
2022/05/30 14:17:51;;;;;;;2.25;1.00;;;13.70;99.90;;;;;;6339680;22;20011;-76
2022/05/30 14:20:20;;;;;;;6.45;1.20;;;13.80;99.90;;;;;;6311767;22;20313;-78
2022/05/30 14:23:18;;;;;;;4.95;1.33;;;14.00;99.90;;;;;;6311657;22;20332;-77
2022/05/30 14:25:46;;;;;;;2.55;0.82;;;14.10;99.90;;;;;;6254896;22;20018;-77
2022/05/30 14:28:42;;;;;;;4.65;1.23;;;14.20;99.90;;;;;;6339545;22;20013;-74
2022/05/30 14:31:14;;;;;;;6.07;1.50;;;14.30;99.90;;;;;;6305430;22;20015;-77
2022/05/30 14:33:54;;;;;;;3.67;1.13;;;14.40;99.90;;;;;;6311046;22;20011;-77
2022/05/30 14:36:28;;;;;;;3.40;1.27;;;14.40;99.90;;;;;;6311595;22;20026;-76
2022/05/30 14:39:00;;;;;;;3.45;1.45;;;14.50;99.90;;;;;;6285725;22;20546;-77
2022/05/30 14:41:33;;;;;;;6.20;1.30;;;14.50;99.90;;;;;;6312543;22;20015;-77
2022/05/30 14:43:59;;;;;;;4.65;1.25;;;14.60;99.90;;;;;;6341299;22;20014;-76
2022/05/30 14:46:43;;;;;;;8.50;2.55;;;14.60;99.90;;;;;;6311539;22;20049;-77
2022/05/30 14:49:21;;;;;;;5.32;1.40;;;14.50;99.90;;;;;;6311666;22;20015;-76
2022/05/30 14:51:57;;;;;;;3.85;1.35;;;14.50;99.90;;;;;;6311412;22;20469;-76
2022/05/30 14:54:31;;;;;;;5.20;1.48;;;14.50;99.90;;;;;;6339569;22;20004;-77
2022/05/30 14:57:01;;;;;;;4.95;1.30;;;14.50;99.90;;;;;;6339442;22;20010;-77
2022/05/30 14:59:30;;;;;;;4.45;1.30;;;14.50;99.90;;;;;;6311423;22;20010;-76
2022/05/30 15:01:55;;;;;;;6.07;1.73;;;14.40;99.90;;;;;;6339251;22;20318;-77
2022/05/30 15:04:21;;;;;;;3.03;1.30;;;14.40;99.90;;;;;;6311280;22;20017;-76
2022/05/30 15:07:08;;;;;;;4.32;1.05;;;14.30;99.90;;;;;;6311842;22;20405;-77
2022/05/30 15:09:44;;;;;;;3.25;1.42;;;14.20;99.90;;;;;;6338906;22;20414;-76
2022/05/30 15:12:10;;;;;;;4.50;1.15;;;14.40;99.90;;;;;;6338913;22;20453;-79
2022/05/30 15:14:35;;;;;;;4.00;1.10;;;14.50;99.90;;;;;;6311075;22;20011;-76
2022/05/30 15:17:01;;;;;;;2.53;0.95;;;14.80;99.90;;;;;;6311121;22;20090;-76
2022/05/30 15:19:27;;;;;;;3.65;1.10;;;14.80;99.90;;;;;;6339283;22;20383;-77
2022/05/30 15:22:01;;;;;;;8.05;1.48;;;14.80;99.90;;;;;;6311099;22;20019;-76
2022/05/30 15:24:34;;;;;;;3.53;1.25;;;14.80;99.90;;;;;;6311263;22;20019;-76
2022/05/30 15:27:01;;;;;;;4.75;1.20;;;14.70;99.90;;;;;;6311052;22;20318;-77
2022/05/30 15:29:27;;;;;;;3.45;1.20;;;14.60;99.90;;;;;;6339189;22;20014;-76
2022/05/30 15:31:55;;;;;;;3.67;0.90;;;14.50;99.90;;;;;;6310991;22;20437;-77
2022/05/30 15:34:21;;;;;;;6.75;1.02;;;14.40;99.90;;;;;;6338779;22;20332;-77
2022/05/30 15:36:48;;;;;;;4.93;1.00;;;14.20;99.90;;;;;;6285172;22;20015;-76
2022/05/30 15:39:15;;;;;;;4.22;1.00;;;14.10;99.90;;;;;;6338805;22;20007;-76
2022/05/30 15:41:44;;;;;;;2.33;1.02;;;14.00;99.90;;;;;;6310761;22;20011;-76
2022/05/30 15:44:14;;;;;;;4.55;1.20;;;14.00;99.90;;;;;;6339110;22;20008;-77
2022/05/30 15:46:40;;;;;;;3.15;1.13;;;14.00;99.90;;;;;;6341522;22;20015;-76
2022/05/30 15:49:06;;;;;;;5.03;1.10;;;14.00;99.90;;;;;;6313121;22;20053;-76
2022/05/30 15:51:34;;;;;;;5.80;1.20;;;14.00;99.90;;;;;;6313045;22;20011;-76
2022/05/30 15:59:34;;;;;;;3.90;0.85;;;14.00;99.90;;;;;;6313088;22;20018;-75
2022/05/30 16:02:00;;;;;;;3.70;1.00;;;13.90;99.90;;;;;;6340437;22;20049;-77
2022/05/30 16:04:26;;;;;;;4.70;1.00;;;14.00;99.90;;;;;;6340974;22;20059;-80
2022/05/30 16:06:52;;;;;;;4.60;1.52;;;14.00;99.90;;;;;;6287363;22;20015;-78
2022/05/30 16:09:20;;;;;;;2.45;0.90;;;14.10;99.90;;;;;;6287975;22;20011;-78
2022/05/30 16:11:50;;;;;;;2.40;0.73;;;14.10;99.90;;;;;;6313162;22;20089;-77
2022/05/30 16:14:16;;;;;;;3.08;0.80;;;14.20;99.90;;;;;;6341059;22;20009;-78
2022/05/30 16:16:42;;;;;;;3.35;1.10;;;14.20;99.90;;;;;;6312873;22;20014;-78
2022/05/30 16:19:08;;;;;;;4.38;1.00;;;14.30;99.90;;;;;;6312985;22;20467;-76
2022/05/30 16:21:34;;;;;;;5.85;1.45;;;14.30;99.90;;;;;;6312772;22;20444;-78
2022/05/30 16:24:04;;;;;;;3.65;1.20;;;14.30;99.90;;;;;;6312844;22;20018;-78
2022/05/30 16:26:34;;;;;;;3.95;1.13;;;14.30;99.90;;;;;;6312779;22;20038;-77
2022/05/30 16:29:00;;;;;;;4.55;1.20;;;14.40;99.90;;;;;;6313304;22;20011;-77
2022/05/30 16:31:27;;;;;;;4.32;0.88;;;14.40;99.90;;;;;;6312664;22;20015;-78
2022/05/30 16:33:53;;;;;;;3.72;1.30;;;14.40;99.90;;;;;;6340454;22;20002;-77
2022/05/30 16:36:21;;;;;;;5.50;1.40;;;14.40;99.90;;;;;;6312297;22;20006;-77
2022/05/30 16:38:47;;;;;;;6.57;1.63;;;14.40;99.90;;;;;;6312369;22;20019;-79